E/V Nautilus — J8B3605 — position and weather

sailwx.info

Track history (hours):
 
Tides and Currents Weather Stations Pressure Air Temp Water Temp Dewpoint Dewpoint Depression Visibility Wind Speed Wind Dir Waves Ship Positions

Oceanographic research ship E/V Nautilus (St Vincent and the Grenadines)

Ship's website: http://www.nautiluslive.org

Last reported at 2017-Oct-05 06:44 UTC. Time now 2017-Nov-18 00:47 UTC.
Position N 28°52' W 118°53'.
Warning: this ship's position is 43 days out of date.

; draft 5 m.

Type: Other ship. MMSI: 376404000.

Date/timePositionNaut miles runAvg speedWind from/ knotsBaromVisibWave heightAir tempDewpointWater temp
2017-Oct-05 06:44N 28°52' W 118°53'2 9.7
2017-Oct-05 06:30N 28°55' W 118°53'5 9.8
2017-Oct-05 06:00N 28°59' W 118°53'5 9.9
2017-Oct-05 05:30N 29°04' W 118°52'19 9.7
2017-Oct-05 03:31N 29°23' W 118°50'010.1
2017-Oct-05 03:30N 29°24' W 118°50'4110.0
2017-Oct-04 23:23N 30°05' W 118°45'1210.4
2017-Oct-04 22:15N 30°16' W 118°43'610.3
2017-Oct-04 21:38N 30°23' W 118°43'210.4
2017-Oct-04 21:28N 30°24' W 118°42'610.3
2017-Oct-04 20:50N 30°31' W 118°42'3 8.1
2017-Oct-04 20:31N 30°34' W 118°41'5 9.2
2017-Oct-04 20:01N 30°38' W 118°41'510.1
2017-Oct-04 19:30N 30°43' W 118°40'5 9.8
2017-Oct-04 18:57N 30°49' W 118°40'5 9.5
2017-Oct-04 18:29N 30°53' W 118°39'5 9.6
2017-Oct-04 18:00N 30°58' W 118°39'3 5.4
2017-Oct-04 17:29N 31°00' W 118°38'3 5.5
2017-Oct-04 16:57N 31°03' W 118°38'4 8.5
2017-Oct-04 16:29N 31°07' W 118°37'7 8.7
2017-Oct-04 15:44N 31°14' W 118°37'2 8.9
2017-Oct-04 15:30N 31°16' W 118°36'5 8.9
2017-Oct-04 14:58N 31°21' W 118°36'4 8.8
2017-Oct-04 14:30N 31°25' W 118°35'4 8.9
2017-Oct-04 14:01N 31°29' W 118°35'5 8.9
2017-Oct-04 13:26N 31°34' W 118°34'4 8.8
2017-Oct-04 13:00N 31°38' W 118°34'5 9.2
2017-Oct-04 12:31N 31°42' W 118°33'5 9.3
2017-Oct-04 12:01N 31°47' W 118°33'5 9.5
2017-Oct-04 11:30N 31°52' W 118°32'5 9.7
2017-Oct-04 11:01N 31°57' W 118°31'5 9.6
2017-Oct-04 10:30N 32°01' W 118°31'5 9.6
2017-Oct-04 10:00N 32°06' W 118°30'5 9.5
2017-Oct-04 09:30N 32°11' W 118°30'5 9.8
2017-Oct-04 08:59N 32°16' W 118°29'17 9.5
2017-Oct-04 07:11N 32°33' W 118°26'2 9.6
2017-Oct-04 07:00N 32°34' W 118°25'5 9.7
2017-Oct-04 06:30N 32°37' W 118°20'5 9.7
2017-Oct-04 05:57N 32°39' W 118°14'5 9.5
2017-Oct-04 05:28N 32°44' W 118°13'5 9.7
2017-Oct-04 05:00N 32°48' W 118°12'510.0
2017-Oct-04 04:31N 32°53' W 118°11'5 9.9
2017-Oct-04 04:00N 32°58' W 118°10'510.0
2017-Oct-04 03:29N 33°03' W 118°09'5 9.8
2017-Oct-04 03:01N 33°07' W 118°07'5 9.8
2017-Oct-04 02:31N 33°12' W 118°06'5 9.8
2017-Oct-04 02:01N 33°17' W 118°06'510.0
2017-Oct-04 01:30N 33°22' W 118°08'510.0
2017-Oct-04 01:01N 33°26' W 118°10'7 9.8
2017-Oct-04 00:18N 33°33' W 118°12'3 9.7
2017-Oct-04 00:00N 33°36' W 118°13'5 9.4
2017-Oct-03 23:30N 33°40' W 118°14'4 6.0
2017-Oct-03 22:52N 33°43' W 118°16'0 0.0
2017-Oct-03 22:28N 33°43' W 118°16'0 0.0
2017-Oct-03 21:58N 33°43' W 118°16'0 0.0
2017-Oct-03 21:22N 33°43' W 118°16'0 0.0
2017-Oct-03 20:52N 33°43' W 118°16'0 0.0
2017-Oct-03 20:28N 33°43' W 118°16'0 0.0
2017-Oct-03 19:58N 33°43' W 118°16'0 0.0
2017-Oct-03 19:28N 33°43' W 118°16'0 0.0
2017-Oct-03 18:58N 33°43' W 118°16'0 0.0
2017-Oct-03 18:22N 33°43' W 118°16'0 0.0
2017-Oct-03 17:58N 33°43' W 118°16'0 0.0
2017-Oct-03 17:28N 33°43' W 118°16'0 0.0
2017-Oct-03 16:58N 33°43' W 118°16'0 0.0
2017-Oct-03 16:28N 33°43' W 118°16'0 0.0
2017-Oct-03 07:25N 33°43' W 118°16'0 0.0
2017-Oct-03 06:52N 33°43' W 118°16'0 0.0
2017-Oct-03 06:13N 33°43' W 118°16'0 0.0
2017-Oct-03 05:10N 33°43' W 118°16'0 0.0
2017-Oct-03 04:40N 33°43' W 118°16'0 0.0
2017-Oct-03 04:28N 33°43' W 118°16'0 0.0
2017-Oct-03 03:58N 33°43' W 118°16'0 0.0
2017-Oct-03 03:10N 33°43' W 118°16'0 0.0
2017-Oct-03 01:45N 33°43' W 118°16'0 0.0
2017-Oct-03 01:27N 33°43' W 118°16'0 0.0
2017-Oct-03 00:51N 33°43' W 118°16'0 0.0
2017-Oct-02 22:33N 33°43' W 118°16'0 0.0
2017-Oct-02 22:21N 33°43' W 118°16'0 0.0
2017-Oct-02 21:57N 33°43' W 118°16'0 0.0
2017-Oct-02 21:21N 33°43' W 118°16'0 0.0
2017-Oct-02 20:51N 33°43' W 118°16'0 0.0
2017-Oct-02 20:15N 33°43' W 118°16'0 0.0
2017-Oct-02 19:57N 33°43' W 118°16'0 0.0
2017-Oct-02 19:27N 33°43' W 118°16'0 0.0
2017-Oct-02 18:57N 33°43' W 118°16'0 0.0
2017-Oct-02 18:27N 33°43' W 118°16'0 0.0
2017-Oct-02 17:51N 33°43' W 118°16'0 0.0
2017-Oct-02 17:27N 33°43' W 118°16'0 0.0
2017-Oct-02 16:57N 33°43' W 118°16'0 0.0
2017-Oct-02 16:27N 33°43' W 118°16'0 0.0
2017-Oct-02 15:51N 33°43' W 118°16'0 0.0
2017-Oct-02 15:27N 33°43' W 118°16'0 0.0
2017-Oct-02 14:21N 33°43' W 118°16'0 0.0
2017-Oct-02 08:12N 33°43' W 118°16'0 0.0
2017-Oct-02 02:42N 33°43' W 118°16'0 0.0
2017-Oct-02 02:30N 33°43' W 118°16'0 0.0
2017-Oct-02 02:00N 33°43' W 118°16'0 0.0
2017-Oct-02 01:24N 33°43' W 118°16'0 0.0
2017-Oct-02 01:00N 33°43' W 118°16'0 0.0
2017-Oct-01 23:12N 33°43' W 118°16'0 0.0
2017-Oct-01 22:54N 33°43' W 118°16'0 0.0
2017-Oct-01 22:30N 33°43' W 118°16'0 0.0
2017-Oct-01 22:00N 33°43' W 118°16'0 0.0
2017-Oct-01 21:30N 33°43' W 118°16'0 0.0
2017-Oct-01 20:42N 33°43' W 118°16'0 0.0
2017-Oct-01 20:24N 33°43' W 118°16'0 0.0
2017-Oct-01 19:54N 33°43' W 118°16'0 0.0
2017-Oct-01 19:30N 33°43' W 118°16'0 0.0
2017-Oct-01 18:12N 33°43' W 118°16'0 0.0
2017-Oct-01 18:00N 33°43' W 118°16'0 0.0
2017-Oct-01 17:30N 33°43' W 118°16'0 0.0
2017-Oct-01 16:30N 33°43' W 118°16'0 0.0
2017-Oct-01 09:14N 33°43' W 118°16'0 0.0
2017-Oct-01 06:56N 33°43' W 118°16'0 0.0
2017-Oct-01 06:26N 33°43' W 118°16'0 0.0
2017-Oct-01 05:50N 33°43' W 118°16'0 0.0
2017-Oct-01 05:08N 33°43' W 118°16'0 0.0
2017-Oct-01 04:32N 33°43' W 118°16'0 0.0
2017-Oct-01 04:29N 33°43' W 118°16'0 0.0
2017-Oct-01 03:59N 33°43' W 118°16'0 0.0
2017-Oct-01 03:29N 33°43' W 118°16'0 0.0
2017-Oct-01 02:50N 33°43' W 118°16'66 2.7
2017-Sep-30 02:00N 32°39' W 117°58'2 4.0
2017-Sep-30 01:30N 32°41' W 117°59'4 7.8
2017-Sep-30 01:00N 32°38' W 117°56'1 1.8
2017-Sep-30 00:30N 32°38' W 117°57'4 7.1
2017-Sep-30 00:00N 32°41' W 117°59'2 4.9
2017-Sep-29 23:30N 32°39' W 117°58'4 7.8
2017-Sep-29 23:00N 32°37' W 117°54'2 4.3
2017-Sep-29 22:30N 32°35' W 117°53'4 7.3
2017-Sep-29 22:00N 32°37' W 117°56'1 2.5
2017-Sep-29 21:30N 32°36' W 117°55'4 7.9
2017-Sep-29 21:00N 32°39' W 117°58'1 2.0
2017-Sep-29 20:30N 32°39' W 117°59'4 8.5
2017-Sep-29 20:00N 32°36' W 117°56'4 8.4
2017-Sep-29 19:30N 32°33' W 117°52'4 7.2
2017-Sep-29 19:00N 32°36' W 117°56'4 8.3
2017-Sep-29 18:30N 32°39' W 117°59'1 2.2
2017-Sep-29 18:00N 32°39' W 118°00'4 8.4
2017-Sep-29 17:30N 32°36' W 117°57'4 8.5
2017-Sep-29 17:00N 32°33' W 117°54'3 6.1
2017-Sep-29 16:30N 32°35' W 117°56'4 8.5
2017-Sep-29 16:00N 32°38' W 117°60'4 7.2
2017-Sep-29 15:29N 32°40' W 118°04'5 9.8
2017-Sep-29 15:00N 32°38' W 118°09'510.0
2017-Sep-29 14:30N 32°36' W 118°14'510.0
2017-Sep-29 14:00N 32°36' W 118°20'5 9.9
2017-Sep-29 13:30N 32°36' W 118°26'510.1
2017-Sep-29 13:00N 32°36' W 118°32'510.2
2017-Sep-29 12:30N 32°36' W 118°38'510.3
2017-Sep-29 12:00N 32°36' W 118°44'510.4
2017-Sep-29 11:30N 32°36' W 118°50'510.2
2017-Sep-29 11:00N 32°36' W 118°56'5 9.1
2017-Sep-29 10:30N 32°38' W 119°01'510.1
2017-Sep-29 09:59N 32°43' W 119°04'4 8.8
2017-Sep-29 09:30N 32°45' W 119°08'5 9.4
2017-Sep-29 08:59N 32°42' W 119°12'4 9.2
2017-Sep-29 08:30N 32°39' W 119°08'2 3.5
2017-Sep-29 08:00N 32°37' W 119°07'510.1
2017-Sep-29 07:30N 32°41' W 119°12'2 1.6
2017-Sep-29 06:08N 32°42' W 119°10'1 8.8
2017-Sep-29 06:00N 32°42' W 119°09'4 8.9
2017-Sep-29 05:30N 32°39' W 119°05'2 3.3
2017-Sep-29 05:00N 32°40' W 119°06'910.7
2017-Sep-29 04:08N 32°45' W 119°15'3 8.4
2017-Sep-29 03:47N 32°44' W 119°12'3 8.5
2017-Sep-29 03:28N 32°42' W 119°09'4 8.5
2017-Sep-29 03:00N 32°40' W 119°06'1 1.7
2017-Sep-29 02:30N 32°40' W 119°05'5 9.1
2017-Sep-29 01:59N 32°42' W 119°09'3 5.9
2017-Sep-29 01:30N 32°41' W 119°07'0 0.4
2017-Sep-29 00:46N 32°41' W 119°06'2 6.7
2017-Sep-29 00:30N 32°42' W 119°08'2 3.3
2017-Sep-28 23:57N 32°41' W 119°06'4 8.8
2017-Sep-28 23:27N 32°44' W 119°10'4 8.4
2017-Sep-28 23:00N 32°41' W 119°06'2 3.9
2017-Sep-28 22:30N 32°42' W 119°09'510.6
2017-Sep-28 22:00N 32°45' W 119°14'3 5.1
2017-Sep-28 21:29N 32°44' W 119°11'5 9.2
2017-Sep-28 20:56N 32°41' W 119°06'2 5.6
2017-Sep-28 20:30N 32°39' W 119°04'8 5.7
2017-Sep-28 19:09N 32°44' W 119°11'3 9.4
2017-Sep-28 18:48N 32°42' W 119°08'3 9.2
2017-Sep-28 18:30N 32°40' W 119°05'1 1.2
2017-Sep-28 18:00N 32°41' W 119°05'2 1.6
2017-Sep-28 16:34N 32°42' W 119°07'1 9.0
2017-Sep-28 16:28N 32°42' W 119°07'4 8.6
2017-Sep-28 16:01N 32°40' W 119°03'4 8.7
2017-Sep-28 15:30N 32°42' W 119°07'4 8.7
2017-Sep-28 15:00N 32°45' W 119°11'4 3.9
2017-Sep-28 14:00N 32°43' W 119°07'4 8.1
2017-Sep-28 13:30N 32°40' W 119°03'3 6.7
2017-Sep-28 13:00N 32°42' W 119°06'4 8.4
2017-Sep-28 12:29N 32°45' W 119°10'4 4.0
2017-Sep-28 11:26N 32°43' W 119°06'4 8.5
2017-Sep-28 11:01N 32°41' W 119°03'1 0.7
2017-Sep-28 09:16N 32°42' W 119°04'3 6.0
2017-Sep-28 08:42N 32°44' W 119°07'2 4.7
2017-Sep-28 08:17N 32°43' W 119°05'3 9.5
2017-Sep-28 08:00N 32°41' W 119°02'3 6.2
2017-Sep-28 07:30N 32°38' W 119°04'510.0
2017-Sep-28 07:00N 32°41' W 119°09'1 1.0
2017-Sep-28 05:35N 32°42' W 119°10'1 8.9
2017-Sep-28 05:30N 32°42' W 119°10'4 8.9
2017-Sep-28 05:00N 32°39' W 119°06'0 0.9
2017-Sep-28 04:30N 32°39' W 119°05'510.2
2017-Sep-28 04:00N 32°42' W 119°10'3 3.4
2017-Sep-28 03:01N 32°43' W 119°13'0 9.6
2017-Sep-28 03:00N 32°43' W 119°13'5 8.4
2017-Sep-28 02:26N 32°41' W 119°09'4 8.6
2017-Sep-28 02:00N 32°38' W 119°05'1 2.0
2017-Sep-28 01:30N 32°38' W 119°05'4 8.9
2017-Sep-28 01:00N 32°40' W 119°09'5 9.3
2017-Sep-28 00:30N 32°43' W 119°13'4 2.9
2017-Sep-27 23:14N 32°41' W 119°10'2 8.3
2017-Sep-27 23:00N 32°40' W 119°08'4 8.5
2017-Sep-27 22:30N 32°37' W 119°04'4 8.4
2017-Sep-27 22:00N 32°39' W 119°08'1 1.1
2017-Sep-27 21:30N 32°39' W 119°08'3 5.6
2017-Sep-27 20:59N 32°37' W 119°05'5 9.4
2017-Sep-27 20:30N 32°40' W 119°09'5 9.1
2017-Sep-27 20:00N 32°43' W 119°14'2 4.0
2017-Sep-27 19:30N 32°44' W 119°16'4 8.5
2017-Sep-27 19:00N 32°41' W 119°12'5 9.0
2017-Sep-27 18:30N 32°38' W 119°08'3 6.9
2017-Sep-27 18:00N 32°38' W 119°03'4 8.9
2017-Sep-27 17:30N 32°42' W 119°04'10 9.2
2017-Sep-27 16:24N 32°45' W 119°16'2 6.1
2017-Sep-27 16:00N 32°43' W 119°15'5 9.1
2017-Sep-27 15:30N 32°40' W 119°10'4 8.6
2017-Sep-27 15:00N 32°37' W 119°06'3 5.7
2017-Sep-27 14:30N 32°38' W 119°03'4 8.0
2017-Sep-27 14:00N 32°42' W 119°03'4 8.7
2017-Sep-27 13:30N 32°45' W 119°08'5 8.6
2017-Sep-27 12:58N 32°46' W 119°13'11 8.3
2017-Sep-27 11:41N 32°52' W 119°23'2 9.9
2017-Sep-27 11:30N 32°53' W 119°25'5 9.8
2017-Sep-27 11:00N 32°57' W 119°28'5 9.9
2017-Sep-27 10:30N 33°01' W 119°32'5 9.6
2017-Sep-27 10:00N 33°05' W 119°35'5 9.6
2017-Sep-27 09:30N 33°09' W 119°39'5 9.7
2017-Sep-27 09:00N 33°13' W 119°42'5 9.9
2017-Sep-27 08:30N 33°17' W 119°46'510.0
2017-Sep-27 08:00N 33°21' W 119°50'510.2
2017-Sep-27 07:30N 33°26' W 119°51'510.4
2017-Sep-27 07:00N 33°31' W 119°52'4 7.7
2017-Sep-27 06:30N 33°34' W 119°49'1 1.4
2017-Sep-27 06:00N 33°34' W 119°50'1 1.2
2017-Sep-27 05:30N 33°34' W 119°50'1 1.7
2017-Sep-27 05:00N 33°35' W 119°51'1 2.9
2017-Sep-27 04:30N 33°36' W 119°49'2 5.0
2017-Sep-27 04:00N 33°35' W 119°52'3 5.3
2017-Sep-27 03:30N 33°36' W 119°50'2 4.6
2017-Sep-27 03:00N 33°36' W 119°53'2 3.2
2017-Sep-27 02:30N 33°37' W 119°51'1 1.0
2017-Sep-27 02:00N 33°37' W 119°51'3 5.4
2017-Sep-27 01:30N 33°36' W 119°55'4 8.4
2017-Sep-27 01:01N 33°33' W 119°53'5 9.7
2017-Sep-27 00:30N 33°37' W 119°56'3 5.7
2017-Sep-27 00:00N 33°34' W 119°55'1 1.3
2017-Sep-26 23:30N 33°34' W 119°55'4 8.6
2017-Sep-26 23:00N 33°37' W 119°58'2 3.9
2017-Sep-26 22:30N 33°36' W 119°57'4 7.6
2017-Sep-26 22:00N 33°32' W 119°56'510.0
2017-Sep-26 21:30N 33°36' W 119°59'3 6.2
2017-Sep-26 21:00N 33°33' W 119°57'1 1.9
2017-Sep-26 20:30N 33°34' W 119°58'510.1
2017-Sep-26 20:00N 33°38' W 120°01'2 3.1
2017-Sep-26 19:30N 33°37' W 119°60'5 9.2
2017-Sep-26 18:59N 33°37' W 119°54'4 7.6
2017-Sep-26 18:30N 33°39' W 119°50'1 1.8
2017-Sep-26 18:00N 33°38' W 119°51'1 2.4
2017-Sep-26 17:30N 33°39' W 119°50'3 5.8
2017-Sep-26 17:00N 33°39' W 119°54'1 1.7
2017-Sep-26 16:29N 33°39' W 119°53'1 1.6
2017-Sep-26 16:00N 33°39' W 119°54'2 3.2
2017-Sep-26 15:30N 33°40' W 119°52'3 5.8
2017-Sep-26 15:00N 33°39' W 119°55'5 9.2
2017-Sep-26 14:30N 33°41' W 119°50'510.1
2017-Sep-26 14:00N 33°39' W 119°56'1 1.7
2017-Sep-26 13:30N 33°40' W 119°55'4 8.1
2017-Sep-26 13:00N 33°41' W 119°50'510.2
2017-Sep-26 12:30N 33°39' W 119°56'1 2.9
2017-Sep-26 12:01N 33°39' W 119°58'2 3.1
2017-Sep-26 11:30N 33°40' W 119°56'3 5.1
2017-Sep-26 11:00N 33°38' W 119°59'4 8.2
2017-Sep-26 10:30N 33°40' W 119°54'3 5.3
2017-Sep-26 10:00N 33°41' W 119°51'5 9.5
2017-Sep-26 09:30N 33°40' W 119°57'1 1.6
2017-Sep-26 09:00N 33°40' W 119°57'5 9.8
2017-Sep-26 08:30N 33°41' W 119°52'2 4.0
2017-Sep-26 08:00N 33°41' W 119°54'5 9.5
2017-Sep-26 07:30N 33°39' W 119°60'4 8.1
2017-Sep-26 07:00N 33°41' W 119°55'3 6.3
2017-Sep-26 06:30N 33°42' W 119°52'5 9.2
2017-Sep-26 06:00N 33°41' W 119°57'2 3.2
2017-Sep-26 05:31N 33°40' W 119°59'5 9.7
2017-Sep-26 05:00N 33°42' W 119°53'0 0.9
2017-Sep-26 04:30N 33°42' W 119°54'5 9.4
2017-Sep-26 04:00N 33°40' W 119°59'2 3.2
2017-Sep-26 03:30N 33°41' W 119°57'510.0
2017-Sep-26 03:00N 33°43' W 119°52'4 7.3
2017-Sep-26 02:30N 33°42' W 119°56'5 9.5
2017-Sep-26 02:01N 33°40' W 120°01'5 9.7
2017-Sep-26 01:29N 33°42' W 119°55'3 7.3
2017-Sep-26 01:01N 33°44' W 119°52'5 9.8
2017-Sep-26 00:30N 33°42' W 119°57'3 5.4
2017-Sep-26 00:00N 33°41' W 120°00'5 9.6
2017-Sep-25 23:30N 33°43' W 119°55'4 7.1
2017-Sep-25 23:00N 33°43' W 119°51'5 8.7
2017-Sep-25 22:28N 33°38' W 119°49'4 9.2
2017-Sep-25 22:00N 33°34' W 119°47'3 5.0
2017-Sep-25 21:30N 33°37' W 119°47'4 7.7
2017-Sep-25 21:00N 33°40' W 119°49'510.1
2017-Sep-25 20:30N 33°45' W 119°52'2 4.7
2017-Sep-25 20:00N 33°47' W 119°53'5 9.7
2017-Sep-25 19:30N 33°43' W 119°50'5 9.6
2017-Sep-25 19:00N 33°39' W 119°47'5 9.4
2017-Sep-25 18:30N 33°35' W 119°44'3 5.8
2017-Sep-25 18:00N 33°37' W 119°45'4 8.6
2017-Sep-25 17:30N 33°41' W 119°48'4 8.5
2017-Sep-25 17:00N 33°44' W 119°52'510.3
2017-Sep-25 16:31N 33°42' W 119°58'3 5.8
2017-Sep-25 16:00N 33°41' W 120°01'5 9.4
2017-Sep-25 15:30N 33°43' W 119°56'4 8.4
2017-Sep-25 15:00N 33°45' W 119°51'5 9.8
2017-Sep-25 14:31N 33°43' W 119°57'5 9.9
2017-Sep-25 14:00N 33°41' W 120°02'4 8.5
2017-Sep-25 13:31N 33°43' W 119°58'5 9.7
2017-Sep-25 13:00N 33°45' W 119°52'3 6.4
2017-Sep-25 12:30N 33°44' W 119°56'5 9.9
2017-Sep-25 12:00N 33°42' W 120°01'2 5.0
2017-Sep-25 11:30N 33°43' W 119°59'5 9.9
2017-Sep-25 11:00N 33°45' W 119°53'2 4.1
2017-Sep-25 10:30N 33°44' W 119°55'5 9.2
2017-Sep-25 10:00N 33°42' W 120°01'4 7.1
2017-Sep-25 09:30N 33°41' W 120°05'5 9.5
2017-Sep-25 09:00N 33°43' W 119°59'510.2
2017-Sep-25 08:29N 33°45' W 119°54'2 3.2
2017-Sep-25 08:00N 33°45' W 119°55'4 8.8
2017-Sep-25 07:30N 33°43' W 120°00'0 0.8
2017-Sep-25 07:00N 33°43' W 120°01'  
Track history (hours):
 
Tides and Currents Weather Stations Pressure Air Temp Water Temp Dewpoint Dewpoint Depression Visibility Wind Speed Wind Dir Waves Ship Positions

Oceanographic research ship E/V Nautilus (St Vincent and the Grenadines)

Ship's website: http://www.nautiluslive.org

Last reported at 2017-Oct-05 06:44 UTC. Time now 2017-Nov-18 00:47 UTC.
Position N 28°52' W 118°53'.
Warning: this ship's position is 43 days out of date.

; draft 5 m.

Type: Other ship. MMSI: 376404000.

Date/timePositionNaut miles runAvg speedWind from/ knotsBaromVisibWave heightAir tempDewpointWater temp
2017-Oct-05 06:44N 28°52' W 118°53'2 9.7
2017-Oct-05 06:30N 28°55' W 118°53'5 9.8
2017-Oct-05 06:00N 28°59' W 118°53'5 9.9
2017-Oct-05 05:30N 29°04' W 118°52'19 9.7
2017-Oct-05 03:31N 29°23' W 118°50'010.1
2017-Oct-05 03:30N 29°24' W 118°50'4110.0
2017-Oct-04 23:23N 30°05' W 118°45'1210.4
2017-Oct-04 22:15N 30°16' W 118°43'610.3
2017-Oct-04 21:38N 30°23' W 118°43'210.4
2017-Oct-04 21:28N 30°24' W 118°42'610.3
2017-Oct-04 20:50N 30°31' W 118°42'3 8.1
2017-Oct-04 20:31N 30°34' W 118°41'5 9.2
2017-Oct-04 20:01N 30°38' W 118°41'510.1
2017-Oct-04 19:30N 30°43' W 118°40'5 9.8
2017-Oct-04 18:57N 30°49' W 118°40'5 9.5
2017-Oct-04 18:29N 30°53' W 118°39'5 9.6
2017-Oct-04 18:00N 30°58' W 118°39'3 5.4
2017-Oct-04 17:29N 31°00' W 118°38'3 5.5
2017-Oct-04 16:57N 31°03' W 118°38'4 8.5
2017-Oct-04 16:29N 31°07' W 118°37'7 8.7
2017-Oct-04 15:44N 31°14' W 118°37'2 8.9
2017-Oct-04 15:30N 31°16' W 118°36'5 8.9
2017-Oct-04 14:58N 31°21' W 118°36'4 8.8
2017-Oct-04 14:30N 31°25' W 118°35'4 8.9
2017-Oct-04 14:01N 31°29' W 118°35'5 8.9
2017-Oct-04 13:26N 31°34' W 118°34'4 8.8
2017-Oct-04 13:00N 31°38' W 118°34'5 9.2
2017-Oct-04 12:31N 31°42' W 118°33'5 9.3
2017-Oct-04 12:01N 31°47' W 118°33'5 9.5
2017-Oct-04 11:30N 31°52' W 118°32'5 9.7
2017-Oct-04 11:01N 31°57' W 118°31'5 9.6
2017-Oct-04 10:30N 32°01' W 118°31'5 9.6
2017-Oct-04 10:00N 32°06' W 118°30'5 9.5
2017-Oct-04 09:30N 32°11' W 118°30'5 9.8
2017-Oct-04 08:59N 32°16' W 118°29'17 9.5
2017-Oct-04 07:11N 32°33' W 118°26'2 9.6
2017-Oct-04 07:00N 32°34' W 118°25'5 9.7
2017-Oct-04 06:30N 32°37' W 118°20'5 9.7
2017-Oct-04 05:57N 32°39' W 118°14'5 9.5
2017-Oct-04 05:28N 32°44' W 118°13'5 9.7
2017-Oct-04 05:00N 32°48' W 118°12'510.0
2017-Oct-04 04:31N 32°53' W 118°11'5 9.9
2017-Oct-04 04:00N 32°58' W 118°10'510.0
2017-Oct-04 03:29N 33°03' W 118°09'5 9.8
2017-Oct-04 03:01N 33°07' W 118°07'5 9.8
2017-Oct-04 02:31N 33°12' W 118°06'5 9.8
2017-Oct-04 02:01N 33°17' W 118°06'510.0
2017-Oct-04 01:30N 33°22' W 118°08'510.0
2017-Oct-04 01:01N 33°26' W 118°10'7 9.8
2017-Oct-04 00:18N 33°33' W 118°12'3 9.7
2017-Oct-04 00:00N 33°36' W 118°13'5 9.4
2017-Oct-03 23:30N 33°40' W 118°14'4 6.0
2017-Oct-03 22:52N 33°43' W 118°16'0 0.0
2017-Oct-03 22:28N 33°43' W 118°16'0 0.0
2017-Oct-03 21:58N 33°43' W 118°16'0 0.0
2017-Oct-03 21:22N 33°43' W 118°16'0 0.0
2017-Oct-03 20:52N 33°43' W 118°16'0 0.0
2017-Oct-03 20:28N 33°43' W 118°16'0 0.0
2017-Oct-03 19:58N 33°43' W 118°16'0 0.0
2017-Oct-03 19:28N 33°43' W 118°16'0 0.0
2017-Oct-03 18:58N 33°43' W 118°16'0 0.0
2017-Oct-03 18:22N 33°43' W 118°16'0 0.0
2017-Oct-03 17:58N 33°43' W 118°16'0 0.0
2017-Oct-03 17:28N 33°43' W 118°16'0 0.0
2017-Oct-03 16:58N 33°43' W 118°16'0 0.0
2017-Oct-03 16:28N 33°43' W 118°16'0 0.0
2017-Oct-03 07:25N 33°43' W 118°16'0 0.0
2017-Oct-03 06:52N 33°43' W 118°16'0 0.0
2017-Oct-03 06:13N 33°43' W 118°16'0 0.0
2017-Oct-03 05:10N 33°43' W 118°16'0 0.0
2017-Oct-03 04:40N 33°43' W 118°16'0 0.0
2017-Oct-03 04:28N 33°43' W 118°16'0 0.0
2017-Oct-03 03:58N 33°43' W 118°16'0 0.0
2017-Oct-03 03:10N 33°43' W 118°16'0 0.0
2017-Oct-03 01:45N 33°43' W 118°16'0 0.0
2017-Oct-03 01:27N 33°43' W 118°16'0 0.0
2017-Oct-03 00:51N 33°43' W 118°16'0 0.0
2017-Oct-02 22:33N 33°43' W 118°16'0 0.0
2017-Oct-02 22:21N 33°43' W 118°16'0 0.0
2017-Oct-02 21:57N 33°43' W 118°16'0 0.0
2017-Oct-02 21:21N 33°43' W 118°16'0 0.0
2017-Oct-02 20:51N 33°43' W 118°16'0 0.0
2017-Oct-02 20:15N 33°43' W 118°16'0 0.0
2017-Oct-02 19:57N 33°43' W 118°16'0 0.0
2017-Oct-02 19:27N 33°43' W 118°16'0 0.0
2017-Oct-02 18:57N 33°43' W 118°16'0 0.0
2017-Oct-02 18:27N 33°43' W 118°16'0 0.0
2017-Oct-02 17:51N 33°43' W 118°16'0 0.0
2017-Oct-02 17:27N 33°43' W 118°16'0 0.0
2017-Oct-02 16:57N 33°43' W 118°16'0 0.0
2017-Oct-02 16:27N 33°43' W 118°16'0 0.0
2017-Oct-02 15:51N 33°43' W 118°16'0 0.0
2017-Oct-02 15:27N 33°43' W 118°16'0 0.0
2017-Oct-02 14:21N 33°43' W 118°16'0 0.0
2017-Oct-02 08:12N 33°43' W 118°16'0 0.0
2017-Oct-02 02:42N 33°43' W 118°16'0 0.0
2017-Oct-02 02:30N 33°43' W 118°16'0 0.0
2017-Oct-02 02:00N 33°43' W 118°16'0 0.0
2017-Oct-02 01:24N 33°43' W 118°16'0 0.0
2017-Oct-02 01:00N 33°43' W 118°16'0 0.0
2017-Oct-01 23:12N 33°43' W 118°16'0 0.0
2017-Oct-01 22:54N 33°43' W 118°16'0 0.0
2017-Oct-01 22:30N 33°43' W 118°16'0 0.0
2017-Oct-01 22:00N 33°43' W 118°16'0 0.0
2017-Oct-01 21:30N 33°43' W 118°16'0 0.0
2017-Oct-01 20:42N 33°43' W 118°16'0 0.0
2017-Oct-01 20:24N 33°43' W 118°16'0 0.0
2017-Oct-01 19:54N 33°43' W 118°16'0 0.0
2017-Oct-01 19:30N 33°43' W 118°16'0 0.0
2017-Oct-01 18:12N 33°43' W 118°16'0 0.0
2017-Oct-01 18:00N 33°43' W 118°16'0 0.0
2017-Oct-01 17:30N 33°43' W 118°16'0 0.0
2017-Oct-01 16:30N 33°43' W 118°16'0 0.0
2017-Oct-01 09:14N 33°43' W 118°16'0 0.0
2017-Oct-01 06:56N 33°43' W 118°16'0 0.0
2017-Oct-01 06:26N 33°43' W 118°16'0 0.0
2017-Oct-01 05:50N 33°43' W 118°16'0 0.0
2017-Oct-01 05:08N 33°43' W 118°16'0 0.0
2017-Oct-01 04:32N 33°43' W 118°16'0 0.0
2017-Oct-01 04:29N 33°43' W 118°16'0 0.0
2017-Oct-01 03:59N 33°43' W 118°16'0 0.0
2017-Oct-01 03:29N 33°43' W 118°16'0 0.0
2017-Oct-01 02:50N 33°43' W 118°16'66 2.7
2017-Sep-30 02:00N 32°39' W 117°58'2 4.0
2017-Sep-30 01:30N 32°41' W 117°59'4 7.8
2017-Sep-30 01:00N 32°38' W 117°56'1 1.8
2017-Sep-30 00:30N 32°38' W 117°57'4 7.1
2017-Sep-30 00:00N 32°41' W 117°59'2 4.9
2017-Sep-29 23:30N 32°39' W 117°58'4 7.8
2017-Sep-29 23:00N 32°37' W 117°54'2 4.3
2017-Sep-29 22:30N 32°35' W 117°53'4 7.3
2017-Sep-29 22:00N 32°37' W 117°56'1 2.5
2017-Sep-29 21:30N 32°36' W 117°55'4 7.9
2017-Sep-29 21:00N 32°39' W 117°58'1 2.0
2017-Sep-29 20:30N 32°39' W 117°59'4 8.5
2017-Sep-29 20:00N 32°36' W 117°56'4 8.4
2017-Sep-29 19:30N 32°33' W 117°52'4 7.2
2017-Sep-29 19:00N 32°36' W 117°56'4 8.3
2017-Sep-29 18:30N 32°39' W 117°59'1 2.2
2017-Sep-29 18:00N 32°39' W 118°00'4 8.4
2017-Sep-29 17:30N 32°36' W 117°57'4 8.5
2017-Sep-29 17:00N 32°33' W 117°54'3 6.1
2017-Sep-29 16:30N 32°35' W 117°56'4 8.5
2017-Sep-29 16:00N 32°38' W 117°60'4 7.2
2017-Sep-29 15:29N 32°40' W 118°04'5 9.8
2017-Sep-29 15:00N 32°38' W 118°09'510.0
2017-Sep-29 14:30N 32°36' W 118°14'510.0
2017-Sep-29 14:00N 32°36' W 118°20'5 9.9
2017-Sep-29 13:30N 32°36' W 118°26'510.1
2017-Sep-29 13:00N 32°36' W 118°32'510.2
2017-Sep-29 12:30N 32°36' W 118°38'510.3
2017-Sep-29 12:00N 32°36' W 118°44'510.4
2017-Sep-29 11:30N 32°36' W 118°50'510.2
2017-Sep-29 11:00N 32°36' W 118°56'5 9.1
2017-Sep-29 10:30N 32°38' W 119°01'510.1
2017-Sep-29 09:59N 32°43' W 119°04'4 8.8
2017-Sep-29 09:30N 32°45' W 119°08'5 9.4
2017-Sep-29 08:59N 32°42' W 119°12'4 9.2
2017-Sep-29 08:30N 32°39' W 119°08'2 3.5
2017-Sep-29 08:00N 32°37' W 119°07'510.1
2017-Sep-29 07:30N 32°41' W 119°12'2 1.6
2017-Sep-29 06:08N 32°42' W 119°10'1 8.8
2017-Sep-29 06:00N 32°42' W 119°09'4 8.9
2017-Sep-29 05:30N 32°39' W 119°05'2 3.3
2017-Sep-29 05:00N 32°40' W 119°06'910.7
2017-Sep-29 04:08N 32°45' W 119°15'3 8.4
2017-Sep-29 03:47N 32°44' W 119°12'3 8.5
2017-Sep-29 03:28N 32°42' W 119°09'4 8.5
2017-Sep-29 03:00N 32°40' W 119°06'1 1.7
2017-Sep-29 02:30N 32°40' W 119°05'5 9.1
2017-Sep-29 01:59N 32°42' W 119°09'3 5.9
2017-Sep-29 01:30N 32°41' W 119°07'0 0.4
2017-Sep-29 00:46N 32°41' W 119°06'2 6.7
2017-Sep-29 00:30N 32°42' W 119°08'2 3.3
2017-Sep-28 23:57N 32°41' W 119°06'4 8.8
2017-Sep-28 23:27N 32°44' W 119°10'4 8.4
2017-Sep-28 23:00N 32°41' W 119°06'2 3.9
2017-Sep-28 22:30N 32°42' W 119°09'510.6
2017-Sep-28 22:00N 32°45' W 119°14'3 5.1
2017-Sep-28 21:29N 32°44' W 119°11'5 9.2
2017-Sep-28 20:56N 32°41' W 119°06'2 5.6
2017-Sep-28 20:30N 32°39' W 119°04'8 5.7
2017-Sep-28 19:09N 32°44' W 119°11'3 9.4
2017-Sep-28 18:48N 32°42' W 119°08'3 9.2
2017-Sep-28 18:30N 32°40' W 119°05'1 1.2
2017-Sep-28 18:00N 32°41' W 119°05'2 1.6
2017-Sep-28 16:34N 32°42' W 119°07'1 9.0
2017-Sep-28 16:28N 32°42' W 119°07'4 8.6
2017-Sep-28 16:01N 32°40' W 119°03'4 8.7
2017-Sep-28 15:30N 32°42' W 119°07'4 8.7
2017-Sep-28 15:00N 32°45' W 119°11'4 3.9
2017-Sep-28 14:00N 32°43' W 119°07'4 8.1
2017-Sep-28 13:30N 32°40' W 119°03'3 6.7
2017-Sep-28 13:00N 32°42' W 119°06'4 8.4
2017-Sep-28 12:29N 32°45' W 119°10'4 4.0
2017-Sep-28 11:26N 32°43' W 119°06'4 8.5
2017-Sep-28 11:01N 32°41' W 119°03'1 0.7
2017-Sep-28 09:16N 32°42' W 119°04'3 6.0
2017-Sep-28 08:42N 32°44' W 119°07'2 4.7
2017-Sep-28 08:17N 32°43' W 119°05'3 9.5
2017-Sep-28 08:00N 32°41' W 119°02'3 6.2
2017-Sep-28 07:30N 32°38' W 119°04'510.0
2017-Sep-28 07:00N 32°41' W 119°09'1 1.0
2017-Sep-28 05:35N 32°42' W 119°10'1 8.9
2017-Sep-28 05:30N 32°42' W 119°10'4 8.9
2017-Sep-28 05:00N 32°39' W 119°06'0 0.9
2017-Sep-28 04:30N 32°39' W 119°05'510.2
2017-Sep-28 04:00N 32°42' W 119°10'3 3.4
2017-Sep-28 03:01N 32°43' W 119°13'0 9.6
2017-Sep-28 03:00N 32°43' W 119°13'5 8.4
2017-Sep-28 02:26N 32°41' W 119°09'4 8.6
2017-Sep-28 02:00N 32°38' W 119°05'1 2.0
2017-Sep-28 01:30N 32°38' W 119°05'4 8.9
2017-Sep-28 01:00N 32°40' W 119°09'5 9.3
2017-Sep-28 00:30N 32°43' W 119°13'4 2.9
2017-Sep-27 23:14N 32°41' W 119°10'2 8.3
2017-Sep-27 23:00N 32°40' W 119°08'4 8.5
2017-Sep-27 22:30N 32°37' W 119°04'4 8.4
2017-Sep-27 22:00N 32°39' W 119°08'1 1.1
2017-Sep-27 21:30N 32°39' W 119°08'3 5.6
2017-Sep-27 20:59N 32°37' W 119°05'5 9.4
2017-Sep-27 20:30N 32°40' W 119°09'5 9.1
2017-Sep-27 20:00N 32°43' W 119°14'2 4.0
2017-Sep-27 19:30N 32°44' W 119°16'4 8.5
2017-Sep-27 19:00N 32°41' W 119°12'5 9.0
2017-Sep-27 18:30N 32°38' W 119°08'3 6.9
2017-Sep-27 18:00N 32°38' W 119°03'4 8.9
2017-Sep-27 17:30N 32°42' W 119°04'10 9.2
2017-Sep-27 16:24N 32°45' W 119°16'2 6.1
2017-Sep-27 16:00N 32°43' W 119°15'5 9.1
2017-Sep-27 15:30N 32°40' W 119°10'4 8.6
2017-Sep-27 15:00N 32°37' W 119°06'3 5.7
2017-Sep-27 14:30N 32°38' W 119°03'4 8.0
2017-Sep-27 14:00N 32°42' W 119°03'4 8.7
2017-Sep-27 13:30N 32°45' W 119°08'5 8.6
2017-Sep-27 12:58N 32°46' W 119°13'11 8.3
2017-Sep-27 11:41N 32°52' W 119°23'2 9.9
2017-Sep-27 11:30N 32°53' W 119°25'5 9.8
2017-Sep-27 11:00N 32°57' W 119°28'5 9.9
2017-Sep-27 10:30N 33°01' W 119°32'5 9.6
2017-Sep-27 10:00N 33°05' W 119°35'5 9.6
2017-Sep-27 09:30N 33°09' W 119°39'5 9.7
2017-Sep-27 09:00N 33°13' W 119°42'5 9.9
2017-Sep-27 08:30N 33°17' W 119°46'510.0
2017-Sep-27 08:00N 33°21' W 119°50'510.2
2017-Sep-27 07:30N 33°26' W 119°51'510.4
2017-Sep-27 07:00N 33°31' W 119°52'4 7.7
2017-Sep-27 06:30N 33°34' W 119°49'1 1.4
2017-Sep-27 06:00N 33°34' W 119°50'1 1.2
2017-Sep-27 05:30N 33°34' W 119°50'1 1.7
2017-Sep-27 05:00N 33°35' W 119°51'1 2.9
2017-Sep-27 04:30N 33°36' W 119°49'2 5.0
2017-Sep-27 04:00N 33°35' W 119°52'3 5.3
2017-Sep-27 03:30N 33°36' W 119°50'2 4.6
2017-Sep-27 03:00N 33°36' W 119°53'2 3.2
2017-Sep-27 02:30N 33°37' W 119°51'1 1.0
2017-Sep-27 02:00N 33°37' W 119°51'3 5.4
2017-Sep-27 01:30N 33°36' W 119°55'4 8.4
2017-Sep-27 01:01N 33°33' W 119°53'5 9.7
2017-Sep-27 00:30N 33°37' W 119°56'3 5.7
2017-Sep-27 00:00N 33°34' W 119°55'1 1.3
2017-Sep-26 23:30N 33°34' W 119°55'4 8.6
2017-Sep-26 23:00N 33°37' W 119°58'2 3.9
2017-Sep-26 22:30N 33°36' W 119°57'4 7.6
2017-Sep-26 22:00N 33°32' W 119°56'510.0
2017-Sep-26 21:30N 33°36' W 119°59'3 6.2
2017-Sep-26 21:00N 33°33' W 119°57'1 1.9
2017-Sep-26 20:30N 33°34' W 119°58'510.1
2017-Sep-26 20:00N 33°38' W 120°01'2 3.1
2017-Sep-26 19:30N 33°37' W 119°60'5 9.2
2017-Sep-26 18:59N 33°37' W 119°54'4 7.6
2017-Sep-26 18:30N 33°39' W 119°50'1 1.8
2017-Sep-26 18:00N 33°38' W 119°51'1 2.4
2017-Sep-26 17:30N 33°39' W 119°50'3 5.8
2017-Sep-26 17:00N 33°39' W 119°54'1 1.7
2017-Sep-26 16:29N 33°39' W 119°53'1 1.6
2017-Sep-26 16:00N 33°39' W 119°54'2 3.2
2017-Sep-26 15:30N 33°40' W 119°52'3 5.8
2017-Sep-26 15:00N 33°39' W 119°55'5 9.2
2017-Sep-26 14:30N 33°41' W 119°50'510.1
2017-Sep-26 14:00N 33°39' W 119°56'1 1.7
2017-Sep-26 13:30N 33°40' W 119°55'4 8.1
2017-Sep-26 13:00N 33°41' W 119°50'510.2
2017-Sep-26 12:30N 33°39' W 119°56'1 2.9
2017-Sep-26 12:01N 33°39' W 119°58'2 3.1
2017-Sep-26 11:30N 33°40' W 119°56'3 5.1
2017-Sep-26 11:00N 33°38' W 119°59'4 8.2
2017-Sep-26 10:30N 33°40' W 119°54'3 5.3
2017-Sep-26 10:00N 33°41' W 119°51'5 9.5
2017-Sep-26 09:30N 33°40' W 119°57'1 1.6
2017-Sep-26 09:00N 33°40' W 119°57'5 9.8
2017-Sep-26 08:30N 33°41' W 119°52'2 4.0
2017-Sep-26 08:00N 33°41' W 119°54'5 9.5
2017-Sep-26 07:30N 33°39' W 119°60'4 8.1
2017-Sep-26 07:00N 33°41' W 119°55'3 6.3
2017-Sep-26 06:30N 33°42' W 119°52'5 9.2
2017-Sep-26 06:00N 33°41' W 119°57'2 3.2
2017-Sep-26 05:31N 33°40' W 119°59'5 9.7
2017-Sep-26 05:00N 33°42' W 119°53'0 0.9
2017-Sep-26 04:30N 33°42' W 119°54'5 9.4
2017-Sep-26 04:00N 33°40' W 119°59'2 3.2
2017-Sep-26 03:30N 33°41' W 119°57'510.0
2017-Sep-26 03:00N 33°43' W 119°52'4 7.3
2017-Sep-26 02:30N 33°42' W 119°56'5 9.5
2017-Sep-26 02:01N 33°40' W 120°01'5 9.7
2017-Sep-26 01:29N 33°42' W 119°55'3 7.3
2017-Sep-26 01:01N 33°44' W 119°52'5 9.8
2017-Sep-26 00:30N 33°42' W 119°57'3 5.4
2017-Sep-26 00:00N 33°41' W 120°00'5 9.6
2017-Sep-25 23:30N 33°43' W 119°55'4 7.1
2017-Sep-25 23:00N 33°43' W 119°51'5 8.7
2017-Sep-25 22:28N 33°38' W 119°49'4 9.2
2017-Sep-25 22:00N 33°34' W 119°47'3 5.0
2017-Sep-25 21:30N 33°37' W 119°47'4 7.7
2017-Sep-25 21:00N 33°40' W 119°49'510.1
2017-Sep-25 20:30N 33°45' W 119°52'2 4.7
2017-Sep-25 20:00N 33°47' W 119°53'5 9.7
2017-Sep-25 19:30N 33°43' W 119°50'5 9.6
2017-Sep-25 19:00N 33°39' W 119°47'5 9.4
2017-Sep-25 18:30N 33°35' W 119°44'3 5.8
2017-Sep-25 18:00N 33°37' W 119°45'4 8.6
2017-Sep-25 17:30N 33°41' W 119°48'4 8.5
2017-Sep-25 17:00N 33°44' W 119°52'510.3
2017-Sep-25 16:31N 33°42' W 119°58'3 5.8
2017-Sep-25 16:00N 33°41' W 120°01'5 9.4
2017-Sep-25 15:30N 33°43' W 119°56'4 8.4
2017-Sep-25 15:00N 33°45' W 119°51'5 9.8
2017-Sep-25 14:31N 33°43' W 119°57'5 9.9
2017-Sep-25 14:00N 33°41' W 120°02'4 8.5
2017-Sep-25 13:31N 33°43' W 119°58'5 9.7
2017-Sep-25 13:00N 33°45' W 119°52'3 6.4
2017-Sep-25 12:30N 33°44' W 119°56'5 9.9
2017-Sep-25 12:00N 33°42' W 120°01'2 5.0
2017-Sep-25 11:30N 33°43' W 119°59'5 9.9
2017-Sep-25 11:00N 33°45' W 119°53'2 4.1
2017-Sep-25 10:30N 33°44' W 119°55'5 9.2
2017-Sep-25 10:00N 33°42' W 120°01'4 7.1
2017-Sep-25 09:30N 33°41' W 120°05'5 9.5
2017-Sep-25 09:00N 33°43' W 119°59'510.2
2017-Sep-25 08:29N 33°45' W 119°54'2 3.2
2017-Sep-25 08:00N 33°45' W 119°55'4 8.8
2017-Sep-25 07:30N 33°43' W 120°00'0 0.8
2017-Sep-25 07:00N 33°43' W 120°01'  

Dump ship's entire track history